Aérodrome :







RETROUVEZ-NOUS SUR...

 
LOGIN :

S'inscrire | Disclaimer

   EN    FR    IT 

 









Légende :    VFR   VFR Marginal   IFR   IFR Intensif   IFR Très Intensif
Visi : 
Plafond : 
>= 8 km
>= 3000ft
5 à 8 km
1000 à 3000 ft
1500m à 5 km
500 à 1000 ft
800 à 1500m
200 à 500 ft
< 800m
< 200 ft
Symboles :   Orages  Brouillard  Fortes neiges  Fortes précipitations  Vent > 20 kt






- Altitude de l'aérodrome : 72 ft
- Code IATA : YDF


CYDF - Deer Lake

DERNIER METAR :
  • 221217Z VRB03KT 15SM -SHSN SCT015 BKN025 00/M01 A2974 RMK SF3SC4 SLP072

METARs EXPIRÉS :
  • 221200Z VRB02KT 15SM SCT015 BKN029 M00/M01 A2974 RMK SF3SC4 SLP072
  • 221100Z 04002KT 15SM SCT015 M00/M01 A2973 RMK SC3 SLP069
  • 221051Z 03003KT 15SM SCT015 00/M01 A2973 RMK SC3 SLP069
  • 221000Z 02002KT 12SM -SHSN BKN015 OVC026 01/M00 A2973 RMK SC6SC2 CVCTV CLD EMBD SLP071

TAF AMD TAF CYDF
Valide du 22 à 09h jusqu'au 22 à 20h UTC


220945Z 2209/2220 02006KT P6SM BKN025 OVC080
TEMPO 2209/2220 6SM -SHSN BKN020 OVC080 RMK NXT FCST BY 221400Z



MET'MAP, la Météo Aéronautique d'un coup d'oeil ! - Copyright ORBIFLY Décembre 2007 - Disclaimer

ORBIFLY MET'MAP TEAM :

Programmation & Développement : Alexandra Zaïnal
Conception & Développement : Baudouin d'Aumeries
Co-Programmation & Développement : Marc-Olivier Méhu
Soutien technique & logistique : Manuel Goepfert

Contact : metmap@orbifly.com




SOURCES & CREDITS :

   NOAA